Time;durP1;ratioP1;P1;durP2;ratioP2;P2;SDS_P1;SDS_P2;PMS_P1;PMS_P2;Temp;Humidity;BMP_temperature;BMP_pressure;BME280_temperature;BME280_humidity;BME280_pressure;Samples;Min_cycle;Max_cycle;Signal;HPM_P1;HPM_P2
2023/01/10 00:00:26;;;;;;;39.70;14.07;;;6.60;1.00;;;;;;4953358;28;20515;-50
2023/01/10 00:02:52;;;;;;;47.00;14.57;;;6.60;1.00;;;;;;4960364;28;20453;-49
2023/01/10 00:05:18;;;;;;;34.03;13.10;;;6.60;1.00;;;;;;4959192;28;20870;-49
2023/01/10 00:07:44;;;;;;;28.60;13.47;;;6.60;1.00;;;;;;4962383;28;20249;-49
2023/01/10 00:10:11;;;;;;;28.57;12.87;;;6.60;1.00;;;;;;4952559;29;20449;-49
2023/01/10 00:15:21;;;;;;;37.70;12.93;;;6.60;1.00;;;;;;4953339;28;20429;-49
2023/01/10 00:17:46;;;;;;;38.63;11.90;;;6.60;1.00;;;;;;4954536;28;20414;-48
2023/01/10 00:20:12;;;;;;;29.80;11.20;;;6.60;1.00;;;;;;4957694;28;20200;-49
2023/01/10 00:22:38;;;;;;;29.47;11.27;;;6.60;1.00;;;;;;4942943;29;20253;-49
2023/01/10 00:25:04;;;;;;;29.27;11.53;;;6.60;1.00;;;;;;4945738;29;20448;-49
2023/01/10 00:27:30;;;;;;;31.87;12.00;;;6.60;1.00;;;;;;4953371;29;20382;-57
2023/01/10 00:29:59;;;;;;;29.60;11.00;;;6.60;1.00;;;;;;4952624;29;20455;-49
2023/01/10 00:32:24;;;;;;;31.60;11.20;;;6.60;1.00;;;;;;4952834;28;20284;-49
2023/01/10 00:34:50;;;;;;;26.57;9.83;;;6.60;1.00;;;;;;4960589;28;20511;-49
2023/01/10 00:37:15;;;;;;;29.63;10.10;;;6.60;1.00;;;;;;4972749;28;20243;-50
2023/01/10 00:39:41;;;;;;;28.33;10.97;;;6.60;1.00;;;;;;4973284;28;20244;-49
2023/01/10 00:44:53;;;;;;;29.67;10.10;;;6.50;1.00;;;;;;4952621;29;20209;-49
2023/01/10 00:47:19;;;;;;;22.13;10.77;;;6.50;1.00;;;;;;4954454;29;20437;-49
2023/01/10 00:49:45;;;;;;;27.47;10.23;;;6.50;1.00;;;;;;4955916;29;20205;-49
2023/01/10 00:52:10;;;;;;;29.00;10.43;;;6.50;1.00;;;;;;4956209;28;20198;-49
2023/01/10 00:54:36;;;;;;;30.30;9.90;;;6.50;1.00;;;;;;4955361;29;21099;-56
2023/01/10 00:57:01;;;;;;;31.07;11.30;;;6.50;1.00;;;;;;4956268;28;20205;-49
2023/01/10 00:59:28;;;;;;;27.00;10.70;;;6.50;1.00;;;;;;4955670;28;20191;-48
2023/01/10 01:01:54;;;;;;;29.83;9.20;;;6.50;1.00;;;;;;4955445;28;20202;-49
2023/01/10 01:04:20;;;;;;;22.73;9.60;;;6.50;1.00;;;;;;4955488;29;20921;-49
2023/01/10 01:06:47;;;;;;;22.43;9.63;;;6.50;1.00;;;;;;4947873;29;20229;-49
2023/01/10 01:09:13;;;;;;;19.10;8.77;;;6.50;1.00;;;;;;4944710;29;20445;-49
2023/01/10 01:11:39;;;;;;;30.40;9.57;;;6.50;1.00;;;;;;4954592;28;20448;-49
2023/01/10 01:14:05;;;;;;;24.63;9.50;;;6.50;1.00;;;;;;4947687;28;20221;-52
2023/01/10 01:16:31;;;;;;;24.70;9.00;;;6.50;1.00;;;;;;4955358;29;20648;-48
2023/01/10 01:18:57;;;;;;;22.67;9.53;;;6.40;1.00;;;;;;4955407;28;20700;-49
2023/01/10 01:21:27;;;;;;;21.73;9.30;;;6.40;1.00;;;;;;4954684;29;20539;-48
2023/01/10 01:23:55;;;;;;;24.00;9.40;;;6.40;1.00;;;;;;4939916;29;20459;-49
2023/01/10 01:26:22;;;;;;;19.93;9.27;;;6.30;1.00;;;;;;4943247;29;20469;-49
2023/01/10 01:28:47;;;;;;;25.40;9.20;;;6.20;1.00;;;;;;4937539;29;20460;-49
2023/01/10 01:31:13;;;;;;;19.53;8.60;;;6.20;1.00;;;;;;4928413;28;20438;-50
2023/01/10 01:33:38;;;;;;;21.80;9.00;;;6.20;1.00;;;;;;4940925;29;20224;-54
2023/01/10 01:36:08;;;;;;;26.77;8.90;;;6.10;1.00;;;;;;4943030;28;20237;-49
2023/01/10 01:38:35;;;;;;;30.90;9.30;;;6.10;1.00;;;;;;4939586;29;20683;-49
2023/01/10 01:41:01;;;;;;;33.93;10.07;;;6.00;1.00;;;;;;4939639;29;20973;-49
2023/01/10 01:43:28;;;;;;;27.70;9.77;;;6.00;1.00;;;;;;4951009;29;20475;-49
2023/01/10 01:45:56;;;;;;;23.40;9.30;;;5.90;1.00;;;;;;4954663;29;20197;-53
2023/01/10 01:48:33;;;;;;;20.30;8.80;;;5.90;1.00;;;;;;4942340;28;20471;-49
2023/01/10 01:51:14;;;;;;;28.10;8.90;;;5.90;1.00;;;;;;4954487;28;20453;-48
2023/01/10 01:53:47;;;;;;;22.60;9.03;;;6.00;1.00;;;;;;4954044;29;20974;-48
2023/01/10 01:56:28;;;;;;;27.83;10.00;;;6.00;1.00;;;;;;4953734;29;20523;-49
2023/01/10 01:59:01;;;;;;;26.77;10.60;;;6.00;1.00;;;;;;4953413;29;20443;-48
2023/01/10 02:01:28;;;;;;;25.57;10.10;;;6.00;1.00;;;;;;4953531;29;20436;-48
2023/01/10 02:04:01;;;;;;;24.80;10.07;;;6.00;1.00;;;;;;4954247;29;20413;-48
2023/01/10 02:06:27;;;;;;;22.83;10.10;;;6.00;1.00;;;;;;4946207;28;20784;-49
2023/01/10 02:09:02;;;;;;;28.93;11.40;;;6.00;1.00;;;;;;4952323;29;20437;-48
2023/01/10 02:11:28;;;;;;;23.97;10.47;;;6.00;1.00;;;;;;4954190;29;20710;-49
2023/01/10 02:13:56;;;;;;;27.43;9.93;;;6.00;1.00;;;;;;4952817;29;20475;-49
2023/01/10 02:16:22;;;;;;;22.33;8.83;;;6.00;1.00;;;;;;4950567;29;20944;-51
2023/01/10 02:18:48;;;;;;;34.93;9.80;;;5.90;1.00;;;;;;4952520;28;20452;-51
2023/01/10 02:21:22;;;;;;;25.67;9.23;;;5.90;1.00;;;;;;4944829;28;20221;-51
2023/01/10 02:24:32;;;;;;;24.80;8.73;;;6.00;1.00;;;;;;4952203;29;20211;-51
2023/01/10 02:27:27;;;;;;;21.50;9.10;;;6.00;1.00;;;;;;4932572;29;20787;-52
2023/01/10 02:30:01;;;;;;;20.40;8.60;;;5.90;1.00;;;;;;4951881;28;20532;-50
2023/01/10 02:32:34;;;;;;;18.00;8.90;;;5.90;1.00;;;;;;4953620;29;20449;-51
2023/01/10 02:35:25;;;;;;;20.20;9.60;;;5.90;1.00;;;;;;4952917;29;20562;-50
2023/01/10 02:38:17;;;;;;;25.03;9.60;;;5.90;1.00;;;;;;4945280;29;20455;-50
2023/01/10 02:41:06;;;;;;;25.13;9.80;;;5.90;1.00;;;;;;4952749;29;20433;-54
2023/01/10 02:43:40;;;;;;;29.97;10.13;;;5.90;1.00;;;;;;4952305;29;22182;-50
2023/01/10 02:46:12;;;;;;;21.80;9.50;;;6.00;1.00;;;;;;4952741;29;20441;-51
2023/01/10 02:48:37;;;;;;;20.73;8.90;;;5.90;1.00;;;;;;4951873;28;20457;-51
2023/01/10 02:51:07;;;;;;;22.37;9.07;;;5.90;1.00;;;;;;4938872;28;20525;-51
2023/01/10 02:53:42;;;;;;;21.20;9.40;;;5.90;1.00;;;;;;4938635;29;20248;-51
2023/01/10 02:56:37;;;;;;;20.77;9.37;;;5.90;1.00;;;;;;4944438;29;20452;-51
2023/01/10 02:59:15;;;;;;;17.80;8.20;;;5.90;1.00;;;;;;4951667;29;20440;-51
2023/01/10 03:02:27;;;;;;;23.37;8.43;;;5.90;1.00;;;;;;4951991;29;20452;-51
2023/01/10 03:05:30;;;;;;;26.90;9.10;;;5.90;1.00;;;;;;4873248;29;20646;-51
2023/01/10 03:08:10;;;;;;;27.57;8.53;;;5.90;1.00;;;;;;4952116;29;20445;-51
2023/01/10 03:10:48;;;;;;;26.10;8.90;;;5.90;1.00;;;;;;4952247;29;20564;-51
2023/01/10 03:13:52;;;;;;;25.43;8.70;;;5.90;1.00;;;;;;4948313;29;20479;-51
2023/01/10 03:16:23;;;;;;;20.97;8.43;;;5.90;1.00;;;;;;4952637;29;20448;-51
2023/01/10 03:18:57;;;;;;;20.27;8.10;;;5.90;1.00;;;;;;4951041;28;20457;-51
2023/01/10 03:21:24;;;;;;;22.30;8.37;;;5.90;1.00;;;;;;4944697;29;20449;-51
2023/01/10 03:23:53;;;;;;;18.03;7.20;;;5.90;1.00;;;;;;4952133;28;20503;-51
2023/01/10 03:26:33;;;;;;;18.27;8.03;;;5.80;1.00;;;;;;4940084;29;20453;-51
2023/01/10 03:29:05;;;;;;;18.80;6.60;;;5.80;1.00;;;;;;4937122;29;20476;-51
2023/01/10 03:31:38;;;;;;;27.70;7.90;;;5.80;1.00;;;;;;4937166;29;20442;-51
2023/01/10 03:34:04;;;;;;;20.97;7.87;;;5.80;1.00;;;;;;4948510;28;20553;-50
2023/01/10 03:36:41;;;;;;;24.10;7.77;;;5.70;1.00;;;;;;4951680;29;20496;-51
2023/01/10 03:39:33;;;;;;;24.80;8.40;;;5.60;1.00;;;;;;4951952;29;20519;-51
2023/01/10 03:42:05;;;;;;;22.43;8.10;;;5.60;1.00;;;;;;4951568;29;20440;-50
2023/01/10 03:44:59;;;;;;;16.63;8.00;;;5.50;1.00;;;;;;4955800;29;20951;-51
2023/01/10 03:47:44;;;;;;;18.70;6.73;;;5.50;1.00;;;;;;4948361;28;20544;-51
2023/01/10 03:50:13;;;;;;;21.50;8.07;;;5.50;1.00;;;;;;4956007;29;20432;-51
2023/01/10 03:52:41;;;;;;;16.40;6.60;;;5.40;1.00;;;;;;4956343;29;20417;-51
2023/01/10 03:55:10;;;;;;;23.23;7.80;;;5.40;1.00;;;;;;4954444;29;20991;-51
2023/01/10 03:57:36;;;;;;;16.30;7.53;;;5.40;1.00;;;;;;4947723;29;20437;-50
2023/01/10 04:00:03;;;;;;;21.50;8.67;;;5.50;1.00;;;;;;4955928;29;20444;-51
2023/01/10 04:02:30;;;;;;;20.63;7.23;;;5.50;1.00;;;;;;4955971;29;20220;-51
2023/01/10 04:04:56;;;;;;;14.53;6.73;;;5.40;1.00;;;;;;4955390;29;20747;-51
2023/01/10 04:07:22;;;;;;;19.17;7.20;;;5.30;1.00;;;;;;4956293;29;20876;-51
2023/01/10 04:09:48;;;;;;;21.93;7.03;;;5.30;1.00;;;;;;4955554;29;20449;-51
2023/01/10 04:12:14;;;;;;;13.10;7.70;;;5.30;1.00;;;;;;4955508;29;20694;-51
2023/01/10 04:14:40;;;;;;;15.23;6.03;;;5.30;1.00;;;;;;4954445;29;20269;-51
2023/01/10 04:17:06;;;;;;;18.70;6.73;;;5.20;1.00;;;;;;4954857;28;20469;-51
2023/01/10 04:19:31;;;;;;;26.17;7.30;;;5.20;1.00;;;;;;4939047;29;20223;-51
2023/01/10 04:21:57;;;;;;;18.90;7.33;;;5.20;1.00;;;;;;4955612;29;20212;-51
2023/01/10 04:24:22;;;;;;;14.60;6.40;;;5.20;1.00;;;;;;4956173;29;20193;-51
2023/01/10 04:26:48;;;;;;;18.47;7.17;;;5.20;1.00;;;;;;4947242;29;20205;-51
2023/01/10 04:29:13;;;;;;;17.63;6.77;;;5.20;1.00;;;;;;4954866;29;20198;-51
2023/01/10 04:31:39;;;;;;;18.27;6.63;;;5.10;1.00;;;;;;4954936;29;20579;-51
2023/01/10 04:34:08;;;;;;;17.77;6.77;;;5.10;1.00;;;;;;4955064;29;20316;-51
2023/01/10 04:36:35;;;;;;;16.33;6.80;;;5.10;1.00;;;;;;4954524;29;20526;-51
2023/01/10 04:39:01;;;;;;;25.17;7.00;;;5.10;1.00;;;;;;4952736;28;20433;-50
2023/01/10 04:41:27;;;;;;;16.37;5.90;;;5.10;1.00;;;;;;4954793;29;20433;-51
2023/01/10 04:43:52;;;;;;;15.43;6.57;;;5.10;1.00;;;;;;4954324;29;20452;-51
2023/01/10 04:46:18;;;;;;;19.23;6.30;;;5.10;1.00;;;;;;4947168;28;20880;-51
2023/01/10 04:48:43;;;;;;;16.80;6.00;;;5.10;1.00;;;;;;4953688;28;20237;-51
2023/01/10 04:51:09;;;;;;;21.60;5.80;;;5.10;1.00;;;;;;4955053;29;20208;-51
2023/01/10 04:53:35;;;;;;;17.40;5.13;;;5.10;1.00;;;;;;4953471;28;20699;-51
2023/01/10 04:56:05;;;;;;;17.97;5.80;;;5.20;1.00;;;;;;4948632;29;20645;-51
2023/01/10 04:58:35;;;;;;;18.90;5.40;;;5.20;1.00;;;;;;4955853;28;20679;-51
2023/01/10 05:01:12;;;;;;;19.30;6.10;;;5.30;1.00;;;;;;4953897;29;20445;-51
2023/01/10 05:03:38;;;;;;;14.53;5.80;;;5.20;1.00;;;;;;4954607;29;20893;-50
2023/01/10 05:06:04;;;;;;;18.77;6.73;;;5.30;1.00;;;;;;4953790;29;20477;-51
2023/01/10 05:08:30;;;;;;;19.70;6.10;;;5.30;1.00;;;;;;4947018;29;20213;-51
2023/01/10 05:10:55;;;;;;;23.07;6.13;;;5.40;1.00;;;;;;4946783;29;20945;-51
2023/01/10 05:13:21;;;;;;;24.30;6.00;;;5.40;1.00;;;;;;4952792;29;20240;-50
2023/01/10 05:15:47;;;;;;;17.00;5.43;;;5.40;1.00;;;;;;4954084;29;20202;-51
2023/01/10 05:18:12;;;;;;;31.17;6.10;;;5.40;1.00;;;;;;4953812;28;20284;-51
2023/01/10 05:20:38;;;;;;;14.33;5.50;;;5.50;1.00;;;;;;4954277;28;20207;-50
2023/01/10 05:23:03;;;;;;;12.03;5.00;;;5.50;1.00;;;;;;4955504;28;20190;-51
2023/01/10 05:25:29;;;;;;;20.57;5.73;;;5.50;1.00;;;;;;4954136;29;20202;-51
2023/01/10 05:27:55;;;;;;;19.53;5.63;;;5.60;1.00;;;;;;4952913;28;20225;-51
2023/01/10 05:30:20;;;;;;;24.00;5.20;;;5.60;1.00;;;;;;4947323;29;20261;-51
2023/01/10 05:32:46;;;;;;;17.80;4.80;;;5.60;1.00;;;;;;4953079;29;20678;-50
2023/01/10 05:35:11;;;;;;;11.03;4.60;;;5.60;1.00;;;;;;4954148;29;20232;-51
2023/01/10 05:37:37;;;;;;;16.83;4.63;;;5.60;1.00;;;;;;4933996;28;20242;-51
2023/01/10 05:40:03;;;;;;;15.87;4.67;;;5.60;1.00;;;;;;4935372;29;20572;-50
2023/01/10 05:42:29;;;;;;;20.80;5.40;;;5.60;1.00;;;;;;4917681;29;20541;-51
2023/01/10 05:44:54;;;;;;;18.33;4.80;;;5.60;1.00;;;;;;4935325;29;20442;-51
2023/01/10 05:47:20;;;;;;;20.53;4.70;;;5.60;1.00;;;;;;4933988;29;20589;-50
2023/01/10 05:49:46;;;;;;;20.77;5.67;;;5.60;1.00;;;;;;4934091;29;20214;-50
2023/01/10 05:52:11;;;;;;;23.30;4.30;;;5.60;1.00;;;;;;4934441;29;20213;-50
2023/01/10 05:54:37;;;;;;;15.93;4.80;;;5.60;1.00;;;;;;4919800;29;20554;-50
2023/01/10 05:57:02;;;;;;;14.20;3.70;;;5.60;1.00;;;;;;4933276;29;20580;-51
2023/01/10 05:59:28;;;;;;;20.47;4.33;;;5.50;1.00;;;;;;4933914;29;20700;-51
2023/01/10 06:01:54;;;;;;;19.43;4.50;;;5.50;1.00;;;;;;4934739;29;20842;-51
2023/01/10 06:04:19;;;;;;;20.27;4.53;;;5.50;1.00;;;;;;4933590;29;20226;-51
2023/01/10 06:06:45;;;;;;;23.60;4.57;;;5.50;1.00;;;;;;4934116;29;20274;-51
2023/01/10 06:09:10;;;;;;;17.70;5.13;;;5.50;1.00;;;;;;4934646;29;20202;-51
2023/01/10 06:11:37;;;;;;;20.10;4.47;;;5.40;1.00;;;;;;4919013;29;20206;-54
2023/01/10 06:14:04;;;;;;;17.47;5.23;;;5.40;1.00;;;;;;4934198;29;20226;-50
2023/01/10 06:16:29;;;;;;;20.13;4.53;;;5.40;1.00;;;;;;4929103;29;20542;-51
2023/01/10 06:18:55;;;;;;;13.53;4.37;;;5.30;1.00;;;;;;4932173;29;20937;-50
2023/01/10 06:21:21;;;;;;;22.33;4.50;;;5.30;1.00;;;;;;4933051;29;20214;-51
2023/01/10 06:23:46;;;;;;;25.80;5.60;;;5.30;1.00;;;;;;4935752;29;20215;-51
2023/01/10 06:26:12;;;;;;;17.07;6.77;;;5.30;1.00;;;;;;4933703;29;20206;-51
2023/01/10 06:28:39;;;;;;;18.50;5.10;;;5.30;1.00;;;;;;4933936;29;20234;-50
2023/01/10 06:31:08;;;;;;;20.00;4.83;;;5.20;1.00;;;;;;4924902;29;20678;-50
2023/01/10 06:33:37;;;;;;;20.20;4.47;;;5.10;1.00;;;;;;4931571;29;21018;-51
2023/01/10 06:36:03;;;;;;;22.67;5.43;;;5.20;1.00;;;;;;4921444;29;20486;-51
2023/01/10 06:38:29;;;;;;;21.80;4.43;;;5.30;1.00;;;;;;4925457;29;20827;-51
2023/01/10 06:40:54;;;;;;;16.07;4.47;;;5.30;1.00;;;;;;4933658;29;20209;-51
2023/01/10 06:43:20;;;;;;;22.40;4.57;;;5.30;1.00;;;;;;4937502;29;20229;-51
2023/01/10 06:45:46;;;;;;;17.33;4.50;;;5.30;1.00;;;;;;4933864;29;20210;-51
2023/01/10 06:48:11;;;;;;;16.20;4.43;;;5.30;1.00;;;;;;4933143;29;20206;-51
2023/01/10 06:50:37;;;;;;;21.17;4.43;;;5.30;1.00;;;;;;4933079;29;20217;-51
2023/01/10 06:53:03;;;;;;;20.23;4.70;;;5.20;1.00;;;;;;4934747;29;20198;-51
2023/01/10 06:55:30;;;;;;;14.27;4.93;;;5.20;1.00;;;;;;4933451;29;20206;-51
2023/01/10 06:57:56;;;;;;;15.70;4.73;;;5.20;1.00;;;;;;4933185;29;20442;-52
2023/01/10 07:00:23;;;;;;;25.03;5.20;;;5.20;1.00;;;;;;4922211;29;20548;-51
2023/01/10 07:02:48;;;;;;;17.83;4.90;;;5.10;1.00;;;;;;4938597;29;21289;-51
2023/01/10 07:05:14;;;;;;;24.70;4.97;;;5.10;1.00;;;;;;4932581;29;20458;-51
2023/01/10 07:07:39;;;;;;;17.20;4.80;;;5.10;1.00;;;;;;4931830;29;20202;-50
2023/01/10 07:10:05;;;;;;;16.60;4.03;;;5.20;1.00;;;;;;4932713;29;20205;-51
2023/01/10 07:12:31;;;;;;;14.40;4.97;;;5.20;1.00;;;;;;4943573;29;20301;-50
2023/01/10 07:14:57;;;;;;;12.97;4.83;;;5.20;1.00;;;;;;4932426;29;20569;-50
2023/01/10 07:17:22;;;;;;;24.47;5.27;;;5.30;1.00;;;;;;4938056;29;20193;-51
2023/01/10 07:19:48;;;;;;;12.63;4.80;;;5.30;1.00;;;;;;4936822;29;20210;-50
2023/01/10 07:22:14;;;;;;;17.77;5.27;;;5.30;99.90;;;;;;4936391;29;20233;-51
2023/01/10 07:24:40;;;;;;;21.20;5.30;;;5.20;99.90;;;;;;4919812;29;20750;-51
2023/01/10 07:27:05;;;;;;;15.67;6.67;;;5.20;99.90;;;;;;4937497;29;20454;-51
2023/01/10 07:29:31;;;;;;;23.37;5.93;;;5.20;99.90;;;;;;4936505;29;20206;-51
2023/01/10 07:31:56;;;;;;;12.47;5.70;;;5.20;99.90;;;;;;4937350;29;20274;-52
2023/01/10 07:34:22;;;;;;;13.43;5.47;;;5.30;99.90;;;;;;4937235;29;20241;-50
2023/01/10 07:36:47;;;;;;;23.80;5.67;;;5.20;99.90;;;;;;4949006;29;20247;-51
2023/01/10 07:39:13;;;;;;;23.60;5.67;;;5.30;99.90;;;;;;4955934;28;20261;-50
2023/01/10 07:41:39;;;;;;;15.60;6.00;;;5.30;99.90;;;;;;4955722;29;20202;-54
2023/01/10 07:44:04;;;;;;;23.90;6.27;;;5.30;99.90;;;;;;4954528;28;20249;-50
2023/01/10 07:46:30;;;;;;;24.37;6.70;;;5.30;99.90;;;;;;4955697;28;20648;-50
2023/01/10 07:48:55;;;;;;;23.70;6.73;;;5.30;99.90;;;;;;4955450;28;20553;-50
2023/01/10 07:51:21;;;;;;;22.37;5.73;;;5.40;99.90;;;;;;4953424;29;20216;-50
2023/01/10 07:53:47;;;;;;;23.13;6.33;;;5.40;99.90;;;;;;4951869;29;20234;-50
2023/01/10 07:56:12;;;;;;;16.97;6.27;;;5.40;99.90;;;;;;4955326;29;20204;-50
2023/01/10 07:58:38;;;;;;;21.67;6.80;;;5.50;99.90;;;;;;4956208;29;20182;-50
2023/01/10 08:01:05;;;;;;;23.30;6.43;;;5.50;99.90;;;;;;4956438;28;20185;-51
2023/01/10 08:03:32;;;;;;;20.17;6.90;;;5.60;99.90;;;;;;4955208;28;20293;-50
2023/01/10 08:06:06;;;;;;;19.77;6.10;;;5.60;99.90;;;;;;4953153;28;20457;-50
2023/01/10 08:08:34;;;;;;;29.30;6.40;;;5.60;99.90;;;;;;4960957;28;20571;-50
2023/01/10 08:11:03;;;;;;;27.70;6.90;;;5.60;99.90;;;;;;4963626;28;20493;-50
2023/01/10 08:13:30;;;;;;;22.93;6.60;;;5.60;99.90;;;;;;4936728;29;20241;-52
2023/01/10 08:15:56;;;;;;;20.83;6.53;;;5.60;99.90;;;;;;4944583;28;20433;-50
2023/01/10 08:18:22;;;;;;;22.43;6.70;;;5.70;99.90;;;;;;4955837;29;20516;-50
2023/01/10 08:20:49;;;;;;;21.60;6.10;;;5.70;99.90;;;;;;4946927;29;21183;-50
2023/01/10 08:23:16;;;;;;;20.10;6.23;;;5.70;99.90;;;;;;4955514;29;20863;-50
2023/01/10 08:25:42;;;;;;;24.80;7.13;;;5.80;99.90;;;;;;4956155;28;20800;-50
2023/01/10 08:28:07;;;;;;;21.87;6.87;;;5.80;99.90;;;;;;4952333;28;20437;-50
2023/01/10 08:30:33;;;;;;;15.63;6.67;;;5.80;99.90;;;;;;4952910;29;20205;-49
2023/01/10 08:33:02;;;;;;;27.33;7.00;;;5.80;99.90;;;;;;4954677;29;20189;-50
2023/01/10 08:35:28;;;;;;;21.30;8.20;;;5.90;99.90;;;;;;4952431;28;20241;-50
2023/01/10 08:37:57;;;;;;;22.37;6.30;;;5.90;99.90;;;;;;4952185;29;20927;-51
2023/01/10 08:40:22;;;;;;;18.03;7.63;;;5.90;99.90;;;;;;4955326;29;20200;-50
2023/01/10 08:42:54;;;;;;;22.00;7.27;;;5.90;99.90;;;;;;4955663;28;20401;-50
2023/01/10 08:45:20;;;;;;;17.00;6.37;;;5.90;99.90;;;;;;4955579;29;20174;-50
2023/01/10 08:47:45;;;;;;;24.30;7.63;;;5.90;99.90;;;;;;4931223;29;20445;-50
2023/01/10 08:50:11;;;;;;;20.77;7.63;;;5.90;99.90;;;;;;4934562;29;20228;-50
2023/01/10 08:52:36;;;;;;;25.90;8.40;;;5.90;99.90;;;;;;4934436;29;20920;-50
2023/01/10 08:55:02;;;;;;;22.10;7.80;;;6.00;99.90;;;;;;4935454;29;20470;-50
2023/01/10 08:57:28;;;;;;;15.20;7.33;;;6.00;99.90;;;;;;4941716;29;20210;-50
2023/01/10 08:59:53;;;;;;;30.13;8.13;;;6.00;99.90;;;;;;4935472;29;20611;-50
2023/01/10 09:02:19;;;;;;;22.03;8.93;;;6.00;99.90;;;;;;4945397;29;20206;-51
2023/01/10 09:04:45;;;;;;;21.73;8.00;;;6.10;99.90;;;;;;4952261;29;20198;-51
2023/01/10 09:07:10;;;;;;;19.17;8.13;;;6.00;99.90;;;;;;4955100;29;20209;-56
2023/01/10 09:09:36;;;;;;;23.70;8.50;;;6.10;99.90;;;;;;4955069;29;20799;-51
2023/01/10 09:12:53;;;;;;;25.50;8.70;;;6.10;99.90;;;;;;4943397;29;20190;-50
2023/01/10 09:14:48;;;;;;;27.83;9.33;;;6.10;99.90;;;;;;4935539;29;20229;-50
2023/01/10 09:17:13;;;;;;;25.27;8.80;;;6.20;99.90;;;;;;4934608;29;20916;-51
2023/01/10 09:19:39;;;;;;;24.70;8.57;;;6.10;99.90;;;;;;4935652;29;20358;-50
2023/01/10 09:22:04;;;;;;;24.53;8.50;;;6.20;99.90;;;;;;4928332;29;20213;-50
2023/01/10 09:24:30;;;;;;;32.27;8.77;;;6.30;99.90;;;;;;4935358;29;20214;-51
2023/01/10 09:26:55;;;;;;;25.40;9.33;;;6.30;92.30;;;;;;4935498;29;20202;-51
2023/01/10 09:29:21;;;;;;;21.93;8.83;;;6.40;66.30;;;;;;4935385;29;20649;-50
2023/01/10 09:31:46;;;;;;;24.40;8.07;;;6.50;16.40;;;;;;4935736;29;20530;-51
2023/01/10 09:34:12;;;;;;;22.37;9.57;;;6.50;1.00;;;;;;4935288;29;20677;-50
2023/01/10 09:36:38;;;;;;;18.70;9.13;;;6.50;1.00;;;;;;4946292;29;20243;-50
2023/01/10 09:39:03;;;;;;;21.50;9.23;;;6.40;1.00;;;;;;4954277;28;20178;-50
2023/01/10 09:41:54;;;;;;;20.20;9.10;;;6.40;1.00;;;;;;4954120;28;20235;-50
2023/01/10 09:44:47;;;;;;;20.47;7.97;;;6.40;1.00;;;;;;4954444;29;20189;-50
2023/01/10 09:47:17;;;;;;;18.47;8.83;;;6.30;1.00;;;;;;4954331;29;20421;-50
2023/01/10 09:50:09;;;;;;;18.20;9.20;;;6.40;1.00;;;;;;4954096;29;20489;-50
2023/01/10 09:52:42;;;;;;;28.73;9.13;;;6.40;1.00;;;;;;4954039;29;20524;-50
2023/01/10 09:55:37;;;;;;;30.63;10.43;;;6.40;1.00;;;;;;4954125;29;20449;-51
2023/01/10 09:58:14;;;;;;;32.60;10.30;;;6.40;1.00;;;;;;4941655;28;20469;-50
2023/01/10 10:00:49;;;;;;;27.03;9.40;;;6.50;1.00;;;;;;4952939;29;20433;-50
2023/01/10 10:03:30;;;;;;;28.83;10.23;;;6.50;1.00;;;;;;4954235;29;20512;-50
2023/01/10 10:05:55;;;;;;;24.53;10.20;;;6.50;1.00;;;;;;4954516;29;20401;-51
2023/01/10 10:08:21;;;;;;;31.53;10.27;;;6.50;1.00;;;;;;4953924;28;20437;-50
2023/01/10 10:10:54;;;;;;;28.33;11.13;;;6.50;1.00;;;;;;4954323;29;20189;-50
2023/01/10 10:13:27;;;;;;;26.43;11.10;;;6.60;1.00;;;;;;4953623;29;20241;-50
2023/01/10 10:16:09;;;;;;;23.97;10.10;;;6.60;1.00;;;;;;4953750;29;20412;-50
2023/01/10 10:18:51;;;;;;;36.90;11.57;;;6.60;1.00;;;;;;4954305;29;20464;-50
2023/01/10 10:21:35;;;;;;;27.47;11.57;;;6.60;1.00;;;;;;4954018;29;20938;-50
2023/01/10 10:24:16;;;;;;;30.17;11.93;;;6.60;1.00;;;;;;4954071;28;20904;-50
2023/01/10 10:26:47;;;;;;;20.97;10.20;;;6.60;1.00;;;;;;4954191;29;20469;-50
2023/01/10 10:29:24;;;;;;;21.97;10.27;;;6.60;1.00;;;;;;4954131;29;20422;-50
2023/01/10 10:32:14;;;;;;;24.87;10.30;;;6.50;1.00;;;;;;4953883;29;20401;-50
2023/01/10 10:34:50;;;;;;;24.90;10.53;;;6.60;1.00;;;;;;4953971;28;21007;-50
2023/01/10 10:37:39;;;;;;;27.77;11.23;;;6.50;1.00;;;;;;4952726;28;20575;-50
2023/01/10 10:40:15;;;;;;;30.90;11.90;;;6.50;1.00;;;;;;4934474;29;20422;-50
2023/01/10 10:42:46;;;;;;;27.03;12.20;;;6.50;1.00;;;;;;4934512;29;20823;-50
2023/01/10 10:45:25;;;;;;;34.87;13.17;;;6.50;1.00;;;;;;4934987;29;20805;-51
2023/01/10 10:48:10;;;;;;;38.87;13.50;;;6.50;1.00;;;;;;4934814;29;21055;-50
2023/01/10 10:51:01;;;;;;;30.07;13.63;;;6.50;1.00;;;;;;4934169;29;20899;-51
2023/01/10 10:53:28;;;;;;;31.87;12.80;;;6.50;1.00;;;;;;4937538;28;20480;-60
2023/01/10 10:55:55;;;;;;;28.13;13.10;;;6.50;1.00;;;;;;4953097;29;20440;-54
2023/01/10 10:58:20;;;;;;;31.40;12.67;;;6.50;1.00;;;;;;4953230;29;20456;-50
2023/01/10 11:00:46;;;;;;;30.47;13.50;;;6.50;1.00;;;;;;4953085;29;20923;-50
2023/01/10 11:03:34;;;;;;;29.50;13.30;;;6.50;1.00;;;;;;4952880;28;20189;-50
2023/01/10 11:06:01;;;;;;;26.97;12.33;;;6.60;1.00;;;;;;4953287;29;20401;-50
2023/01/10 11:08:29;;;;;;;32.43;12.80;;;6.60;1.00;;;;;;4953228;28;20533;-50
2023/01/10 11:10:56;;;;;;;26.30;12.27;;;6.60;1.00;;;;;;4952644;28;20441;-50
2023/01/10 11:13:40;;;;;;;22.30;11.30;;;6.70;1.00;;;;;;4952790;29;20422;-49
2023/01/10 11:16:06;;;;;;;29.00;12.07;;;6.70;1.00;;;;;;4953041;29;20422;-50
2023/01/10 11:18:32;;;;;;;23.60;11.70;;;6.60;1.00;;;;;;4953340;29;20756;-49
2023/01/10 11:21:05;;;;;;;26.97;12.87;;;6.70;1.00;;;;;;4953536;29;20417;-49
2023/01/10 11:23:48;;;;;;;29.40;12.47;;;6.70;1.00;;;;;;4953554;29;20424;-49
2023/01/10 11:26:39;;;;;;;32.20;12.17;;;6.70;1.00;;;;;;4952885;28;20815;-50
2023/01/10 11:29:21;;;;;;;34.23;13.07;;;6.70;1.00;;;;;;4952929;29;20430;-49
2023/01/10 11:31:48;;;;;;;37.80;12.20;;;6.60;1.00;;;;;;4952812;29;20413;-52
2023/01/10 11:34:23;;;;;;;31.37;12.40;;;6.60;1.00;;;;;;4952698;29;20476;-50
2023/01/10 11:37:04;;;;;;;24.80;12.43;;;6.70;1.00;;;;;;4952572;29;20483;-50
2023/01/10 11:39:31;;;;;;;30.50;12.67;;;6.80;1.00;;;;;;4952919;29;20519;-49
2023/01/10 11:42:17;;;;;;;26.53;11.70;;;6.80;1.00;;;;;;4952462;29;20449;-49
2023/01/10 11:44:42;;;;;;;27.07;11.60;;;6.80;1.00;;;;;;4952675;28;20468;-50
2023/01/10 11:47:13;;;;;;;34.00;13.23;;;6.80;1.00;;;;;;4952956;28;20445;-49
2023/01/10 11:49:41;;;;;;;28.27;11.67;;;6.80;1.00;;;;;;4952849;29;20174;-57
2023/01/10 11:52:33;;;;;;;30.27;12.50;;;6.80;1.00;;;;;;4952663;29;20431;-49
2023/01/10 11:55:00;;;;;;;28.33;11.40;;;6.80;1.00;;;;;;4949303;29;20469;-49
2023/01/10 11:57:30;;;;;;;40.17;11.90;;;6.80;1.00;;;;;;4952684;29;20914;-50
2023/01/10 11:59:59;;;;;;;30.03;13.57;;;6.90;1.00;;;;;;4952762;28;20433;-50
2023/01/10 12:02:33;;;;;;;30.53;12.67;;;6.90;1.00;;;;;;4937684;29;20421;-51
2023/01/10 12:05:05;;;;;;;23.47;12.50;;;6.90;1.00;;;;;;4956502;29;20417;-50
2023/01/10 12:07:57;;;;;;;31.23;12.33;;;6.90;1.00;;;;;;4956132;29;20857;-50
2023/01/10 12:10:26;;;;;;;27.23;11.90;;;6.90;1.00;;;;;;4956196;29;20434;-49
2023/01/10 12:13:06;;;;;;;30.93;12.30;;;7.00;1.00;;;;;;4943729;28;20475;-50
2023/01/10 12:15:33;;;;;;;32.57;13.50;;;7.10;1.00;;;;;;4948836;28;20468;-50
2023/01/10 12:18:03;;;;;;;31.50;13.10;;;7.10;1.00;;;;;;4959782;28;20487;-50
2023/01/10 12:20:31;;;;;;;29.13;13.13;;;7.10;1.00;;;;;;4959747;28;20426;-50
2023/01/10 12:23:04;;;;;;;28.70;12.10;;;7.20;1.00;;;;;;4956164;29;20425;-50
2023/01/10 12:25:58;;;;;;;30.17;13.20;;;7.20;1.00;;;;;;4956091;29;20430;-50
2023/01/10 12:28:27;;;;;;;33.40;14.00;;;7.30;1.00;;;;;;4954366;28;20779;-49
2023/01/10 12:30:56;;;;;;;30.03;12.60;;;7.30;99.90;;;;;;4955415;28;20449;-50
2023/01/10 12:33:23;;;;;;;30.97;12.30;;;7.30;99.90;;;;;;4955911;29;20443;-49
2023/01/10 12:36:05;;;;;;;31.77;13.30;;;7.30;99.90;;;;;;4954907;29;20507;-50
2023/01/10 12:44:45;;;;;;;31.53;11.97;;;7.50;73.00;;;;;;4911461;29;21258;-49
2023/01/10 12:47:27;;;;;;;35.93;13.47;;;7.50;1.00;;;;;;4956005;28;20484;-59
2023/01/10 12:50:17;;;;;;;31.80;13.10;;;7.50;1.00;;;;;;4954860;28;20441;-49
2023/01/10 12:53:08;;;;;;;29.27;13.63;;;7.60;1.00;;;;;;4955110;28;20957;-49
2023/01/10 12:55:44;;;;;;;40.33;13.37;;;7.60;1.00;;;;;;4918039;29;20496;-49
2023/01/10 12:58:20;;;;;;;30.93;13.60;;;7.60;1.00;;;;;;4954736;29;20414;-50
2023/01/10 13:00:51;;;;;;;27.60;13.50;;;7.60;1.00;;;;;;4955010;29;20444;-49
2023/01/10 13:03:23;;;;;;;27.83;13.17;;;7.50;1.00;;;;;;4955277;29;20455;-50
2023/01/10 13:05:50;;;;;;;29.20;13.70;;;7.50;1.00;;;;;;4955384;29;20427;-57
2023/01/10 13:08:20;;;;;;;35.00;13.83;;;7.50;1.00;;;;;;4947275;28;20541;-49
2023/01/10 13:10:50;;;;;;;30.70;14.33;;;7.50;1.00;;;;;;4938796;28;20426;-50
2023/01/10 13:13:35;;;;;;;29.30;13.67;;;7.50;1.00;;;;;;4954294;28;20773;-52
2023/01/10 13:16:23;;;;;;;23.67;12.80;;;7.50;1.00;;;;;;4955325;29;20421;-51
2023/01/10 13:19:02;;;;;;;22.77;11.97;;;7.60;1.00;;;;;;4955846;29;20410;-50